createdAt,value
2022-08-17T00:04:11.850Z,19.74
2022-08-17T00:09:41.278Z,19.64
2022-08-17T00:15:12.928Z,19.55
2022-08-17T00:20:44.865Z,19.46
2022-08-17T00:26:34.891Z,19.38
2022-08-17T00:31:48.651Z,19.32
2022-08-17T00:37:20.704Z,19.27
2022-08-17T00:42:52.360Z,19.22
2022-08-17T00:48:29.424Z,19.17
2022-08-17T00:53:56.010Z,19.11
2022-08-17T00:59:27.995Z,19.05
2022-08-17T01:05:00.065Z,18.98
2022-08-17T01:10:59.305Z,18.92
2022-08-17T01:16:03.952Z,18.85
2022-08-17T01:21:35.891Z,18.79
2022-08-17T01:27:10.409Z,18.73
2022-08-17T01:32:39.765Z,18.68
2022-08-17T01:38:11.407Z,18.62
2022-08-17T01:43:43.487Z,18.56
2022-08-17T01:49:15.086Z,18.50
2022-08-17T01:54:47.145Z,18.43
2022-08-17T02:00:18.626Z,18.35
2022-08-17T02:05:50.610Z,18.27
2022-08-17T02:11:22.222Z,18.20
2022-08-17T02:16:54.169Z,18.14
2022-08-17T02:22:25.995Z,18.11
2022-08-17T02:27:57.845Z,18.10
2022-08-17T02:33:41.804Z,18.08
2022-08-17T02:39:01.391Z,18.05
2022-08-17T02:44:38.890Z,18.00
2022-08-17T02:50:05.516Z,17.97
2022-08-17T02:55:37.521Z,17.95
2022-08-17T03:01:09.869Z,17.93
2022-08-17T03:06:41.544Z,17.91
2022-08-17T03:12:13.315Z,17.88
2022-08-17T03:17:45.636Z,17.85
2022-08-17T03:23:17.747Z,17.83
2022-08-17T03:28:49.608Z,17.81
2022-08-17T03:34:21.242Z,17.77
2022-08-17T03:39:54.709Z,17.72
2022-08-17T03:45:26.763Z,17.67
2022-08-17T03:50:58.962Z,17.61
2022-08-17T03:56:31.081Z,17.52
2022-08-17T04:04:27.677Z,16.90
2022-08-17T04:09:55.657Z,17.07
2022-08-17T04:15:27.722Z,17.12
2022-08-17T04:20:59.921Z,17.14
2022-08-17T04:26:52.527Z,17.16
2022-08-17T04:32:03.387Z,17.26
2022-08-17T04:39:48.961Z,17.70
2022-08-17T04:45:20.763Z,17.99
2022-08-17T04:50:52.397Z,18.24
2022-08-17T04:56:23.892Z,18.36
2022-08-17T05:01:55.895Z,18.41
2022-08-17T05:07:31.418Z,18.38
2022-08-17T05:12:59.517Z,18.35
2022-08-17T05:18:31.013Z,18.40
2022-08-17T05:24:02.960Z,18.49
2022-08-17T05:29:35.753Z,18.70
2022-08-17T05:35:06.765Z,19.25
2022-08-17T05:40:38.474Z,20.13
2022-08-17T05:46:09.997Z,21.15
2022-08-17T05:51:41.877Z,22.07
2022-08-17T05:57:13.929Z,22.87
2022-08-17T06:02:47.823Z,23.69
2022-08-17T06:08:17.586Z,24.54
2022-08-17T06:13:49.352Z,25.38
2022-08-17T06:19:21.042Z,26.12
2022-08-17T06:24:52.712Z,26.43
2022-08-17T06:30:24.765Z,26.29
2022-08-17T06:35:56.432Z,26.33
2022-08-17T06:41:28.175Z,26.55
2022-08-17T06:46:59.938Z,26.70
2022-08-17T06:52:45.438Z,26.90
2022-08-17T06:58:05.770Z,27.18
2022-08-17T07:03:35.324Z,27.66
2022-08-17T07:09:07.061Z,28.19
2022-08-17T07:14:39.138Z,28.64
2022-08-17T07:20:10.874Z,28.95
2022-08-17T07:25:42.681Z,29.57
2022-08-17T07:31:14.771Z,30.47
2022-08-17T07:36:46.768Z,31.34
2022-08-17T07:42:18.585Z,32.11
2022-08-17T07:47:50.100Z,32.82
2022-08-17T07:53:21.593Z,33.45
2022-08-17T07:58:53.595Z,33.99
2022-08-17T08:04:43.222Z,34.45
2022-08-17T08:09:57.432Z,34.76
2022-08-17T08:15:29.199Z,34.89
2022-08-17T08:21:01.125Z,34.96
2022-08-17T08:26:32.800Z,35.05
2022-08-17T08:32:04.868Z,35.11
2022-08-17T08:37:40.633Z,35.17
2022-08-17T08:43:08.068Z,35.16
2022-08-17T08:48:53.186Z,35.24
2022-08-17T08:54:11.839Z,35.21
2022-08-17T08:59:44.288Z,35.01
2022-08-17T09:05:15.978Z,34.88
2022-08-17T09:10:47.372Z,34.70
2022-08-17T09:16:19.151Z,34.46
2022-08-17T09:21:51.088Z,34.26
2022-08-17T09:27:22.658Z,34.21
2022-08-17T09:32:56.565Z,34.12
2022-08-17T09:38:32.290Z,33.99
2022-08-17T09:44:00.254Z,33.71
2022-08-17T09:49:34.112Z,33.19
2022-08-17T09:55:06.276Z,32.60
2022-08-17T10:00:37.972Z,32.30
2022-08-17T10:06:09.863Z,32.32
2022-08-17T10:11:44.848Z,32.34
2022-08-17T10:22:45.670Z,31.70
2022-08-17T10:28:19.950Z,31.61
2022-08-17T10:33:48.514Z,31.69
2022-08-17T10:39:20.073Z,31.85
2022-08-17T10:44:51.985Z,31.83
2022-08-17T10:50:23.697Z,31.68
2022-08-17T10:52:46.666Z,31.41
2022-08-17T10:58:18.299Z,31.71
2022-08-17T11:03:49.940Z,32.08
2022-08-17T11:09:21.875Z,32.48
2022-08-17T11:14:53.454Z,32.84
2022-08-17T11:20:25.475Z,33.12
2022-08-17T11:25:57.214Z,33.50
2022-08-17T11:37:01.129Z,33.67
2022-08-17T11:42:32.689Z,33.52
2022-08-17T11:48:28.880Z,33.38
2022-08-17T11:53:36.186Z,33.26
2022-08-17T11:59:07.975Z,33.25
2022-08-17T12:04:39.911Z,33.33
2022-08-17T12:10:11.531Z,33.52
2022-08-17T12:15:43.335Z,33.63
2022-08-17T12:21:15.114Z,33.62
2022-08-17T12:26:47.116Z,33.54
2022-08-17T12:32:18.784Z,33.42
2022-08-17T12:37:52.851Z,33.30
2022-08-17T12:43:24.588Z,33.24
2022-08-17T12:48:59.875Z,33.23
2022-08-17T12:59:59.943Z,33.42
2022-08-17T13:05:31.966Z,33.49
2022-08-17T13:11:03.667Z,33.49
2022-08-17T13:16:35.647Z,33.61
2022-08-17T13:22:07.466Z,33.75
2022-08-17T13:27:38.973Z,33.82
2022-08-17T13:33:11.109Z,33.87
2022-08-17T13:38:42.712Z,33.90
2022-08-17T13:44:14.582Z,33.96
2022-08-17T13:49:48.694Z,33.99
2022-08-17T13:55:17.929Z,34.05
2022-08-17T14:00:49.938Z,34.11
2022-08-17T14:06:23.715Z,34.19
2022-08-17T14:11:53.355Z,34.31
2022-08-17T14:17:25.261Z,34.32
2022-08-17T14:22:57.054Z,34.19
2022-08-17T14:28:28.792Z,34.15
2022-08-17T14:34:00.724Z,34.18
2022-08-17T14:39:32.382Z,34.18
2022-08-17T14:45:04.158Z,34.12
2022-08-17T14:50:36.251Z,33.97
2022-08-17T14:56:07.854Z,33.69
2022-08-17T15:01:39.974Z,33.42
2022-08-17T15:07:11.713Z,33.16
2022-08-17T15:12:43.534Z,32.93
2022-08-17T15:18:15.272Z,32.69
2022-08-17T15:23:46.883Z,32.49
2022-08-17T15:29:18.865Z,32.39
2022-08-17T15:34:50.849Z,32.41
2022-08-17T15:40:22.770Z,32.52
2022-08-17T15:45:59.773Z,32.72
2022-08-17T15:51:26.416Z,32.94
2022-08-17T15:56:58.204Z,32.97
2022-08-17T16:03:13.359Z,32.85
2022-08-17T16:08:01.643Z,32.71
2022-08-17T16:13:33.531Z,32.59
2022-08-17T16:19:05.144Z,32.46
2022-08-17T16:24:36.588Z,32.30
2022-08-17T16:30:08.406Z,32.16
2022-08-17T16:35:40.946Z,32.04
2022-08-17T16:41:12.789Z,31.97
2022-08-17T16:46:45.931Z,31.94
2022-08-17T16:52:16.157Z,31.86
2022-08-17T16:57:50.214Z,31.79
2022-08-17T17:03:20.617Z,31.74
2022-08-17T17:08:51.754Z,31.65
2022-08-17T17:14:23.396Z,31.50
2022-08-17T17:19:55.290Z,31.33
2022-08-17T17:25:27.127Z,31.18
2022-08-17T17:31:02.098Z,31.07
2022-08-17T17:36:33.583Z,30.98
2022-08-17T17:42:05.555Z,30.89
2022-08-17T17:53:08.470Z,30.74
2022-08-17T17:58:40.143Z,30.64
2022-08-17T18:04:20.296Z,30.53
2022-08-17T18:09:43.347Z,30.41
2022-08-17T18:15:15.613Z,30.26
2022-08-17T18:20:53.812Z,30.07
2022-08-17T18:26:19.048Z,29.90
2022-08-17T18:31:50.930Z,29.77
2022-08-17T18:37:22.594Z,29.61
2022-08-17T18:42:54.443Z,29.44
2022-08-17T18:48:26.110Z,29.27
2022-08-17T18:53:58.030Z,29.09
2022-08-17T18:59:29.778Z,28.93
2022-08-17T19:05:01.548Z,28.77
2022-08-17T19:10:33.345Z,28.58
2022-08-17T19:16:05.168Z,28.37
2022-08-17T19:21:37.227Z,28.17
2022-08-17T19:27:09.021Z,28.01
2022-08-17T19:32:40.786Z,27.87
2022-08-17T19:38:13.469Z,27.74
2022-08-17T19:43:44.998Z,27.62
2022-08-17T19:54:48.782Z,27.40
2022-08-17T20:00:20.333Z,27.29
2022-08-17T20:06:12.084Z,27.18
2022-08-17T20:11:23.932Z,27.08
2022-08-17T20:19:08.957Z,26.48
2022-08-17T20:24:40.896Z,26.66
2022-08-17T20:30:12.999Z,26.73
2022-08-17T20:35:44.697Z,26.77
2022-08-17T20:41:16.599Z,26.78
2022-08-17T20:46:48.684Z,26.75
2022-08-17T20:52:20.634Z,26.70
2022-08-17T20:57:52.498Z,26.67
2022-08-17T21:03:24.541Z,26.64
2022-08-17T21:08:56.375Z,26.60
2022-08-17T21:14:28.658Z,26.59
2022-08-17T21:20:10.787Z,26.57
2022-08-17T21:25:32.131Z,26.56
2022-08-17T21:31:03.646Z,26.52
2022-08-17T21:36:35.525Z,26.46
2022-08-17T21:42:08.300Z,26.39
2022-08-17T21:47:40.100Z,26.34
2022-08-17T21:53:11.816Z,26.32
2022-08-17T21:58:47.866Z,26.29
2022-08-17T22:04:15.396Z,26.28
2022-08-17T22:09:47.413Z,26.25
2022-08-17T22:15:19.103Z,26.12
2022-08-17T22:20:50.735Z,25.84
2022-08-17T22:26:22.827Z,25.42
2022-08-17T22:31:54.712Z,24.95
2022-08-17T22:37:27.809Z,24.54
2022-08-17T22:42:58.657Z,23.90
2022-08-17T22:48:30.507Z,23.15
2022-08-17T22:54:02.436Z,22.51
2022-08-17T22:59:34.574Z,21.90
2022-08-17T23:05:12.448Z,21.35
2022-08-17T23:10:46.082Z,20.93
2022-08-17T23:16:17.940Z,20.60
2022-08-17T23:21:49.664Z,20.32
2022-08-17T23:27:27.485Z,20.06
2022-08-17T23:32:59.612Z,19.97
2022-08-17T23:38:31.810Z,19.96
2022-08-17T23:44:04.145Z,19.99
2022-08-17T23:49:36.589Z,20.01
2022-08-17T23:55:08.978Z,19.93
